Time;durP1;ratioP1;P1;durP2;ratioP2;P2;SDS_P1;SDS_P2;PMS_P1;PMS_P2;Temp;Humidity;BMP_temperature;BMP_pressure;BME280_temperature;BME280_humidity;BME280_pressure;Samples;Min_cycle;Max_cycle;Signal;HPM_P1;HPM_P2
2022/03/12 00:00:21;;;;;;;7.40;6.60;;;11.60;99.90;;;;;;4954818;28;20693;-69
2022/03/12 00:02:47;;;;;;;7.57;6.77;;;11.60;99.90;;;;;;4958472;28;20173;-69
2022/03/12 00:05:13;;;;;;;8.43;6.90;;;11.50;99.90;;;;;;4961178;29;20224;-69
2022/03/12 00:07:42;;;;;;;6.33;5.67;;;11.60;99.90;;;;;;4958307;28;20198;-69
2022/03/12 00:10:12;;;;;;;7.90;7.20;;;11.60;99.90;;;;;;4958275;28;20169;-69
2022/03/12 00:12:41;;;;;;;9.17;6.47;;;11.60;99.90;;;;;;4958341;28;20250;-70
2022/03/12 00:15:11;;;;;;;7.50;6.80;;;11.60;99.90;;;;;;4958187;28;20185;-69
2022/03/12 00:17:45;;;;;;;7.73;6.53;;;11.60;99.90;;;;;;4957932;28;20203;-70
2022/03/12 00:20:16;;;;;;;6.97;6.03;;;11.60;99.90;;;;;;4957913;28;20255;-70
2022/03/12 00:22:48;;;;;;;7.40;6.60;;;11.60;99.90;;;;;;4956636;29;20180;-70
2022/03/12 00:25:21;;;;;;;7.20;6.50;;;11.60;99.90;;;;;;4956651;28;20299;-69
2022/03/12 00:27:48;;;;;;;6.90;6.20;;;11.50;99.90;;;;;;4957861;28;20173;-70
2022/03/12 00:30:21;;;;;;;7.83;7.03;;;11.50;99.90;;;;;;4957891;28;20195;-69
2022/03/12 00:32:48;;;;;;;7.70;6.43;;;11.40;99.90;;;;;;4957965;28;20181;-69
2022/03/12 00:35:15;;;;;;;7.07;6.13;;;11.40;99.90;;;;;;4957836;28;20218;-69
2022/03/12 00:37:40;;;;;;;7.33;6.57;;;11.40;99.90;;;;;;4940832;29;20180;-69
2022/03/12 00:40:07;;;;;;;6.50;5.90;;;11.40;99.90;;;;;;4957756;28;20187;-69
2022/03/12 00:42:33;;;;;;;6.83;5.80;;;11.40;99.90;;;;;;4957704;28;20199;-69
2022/03/12 00:44:58;;;;;;;6.23;5.40;;;11.30;99.90;;;;;;4957978;28;20647;-69
2022/03/12 00:47:24;;;;;;;6.07;5.57;;;11.40;99.90;;;;;;4957588;28;20177;-70
2022/03/12 00:49:50;;;;;;;5.40;4.90;;;11.30;99.90;;;;;;4957279;28;20192;-70
2022/03/12 00:52:19;;;;;;;6.53;5.93;;;11.40;99.90;;;;;;4957521;28;20190;-70
2022/03/12 00:54:45;;;;;;;5.93;5.30;;;11.30;99.90;;;;;;4957518;28;20177;-70
2022/03/12 00:57:12;;;;;;;14.50;6.17;;;11.20;99.90;;;;;;4957448;28;20667;-69
2022/03/12 00:59:41;;;;;;;6.33;5.20;;;11.20;99.90;;;;;;4957359;28;20164;-69
2022/03/12 01:02:10;;;;;;;5.93;5.33;;;11.20;99.90;;;;;;4957384;28;20220;-69
2022/03/12 01:04:36;;;;;;;6.43;5.80;;;11.10;99.90;;;;;;4956969;28;20696;-70
2022/03/12 01:07:02;;;;;;;6.57;5.97;;;11.00;99.90;;;;;;4957459;28;20192;-70
2022/03/12 01:09:29;;;;;;;7.90;6.03;;;11.00;99.90;;;;;;4957389;28;20177;-70
2022/03/12 01:11:55;;;;;;;6.27;5.57;;;11.00;99.90;;;;;;4956144;28;20173;-69
2022/03/12 01:14:20;;;;;;;5.80;5.37;;;11.00;99.90;;;;;;4955793;28;20185;-69
2022/03/12 01:16:46;;;;;;;5.97;5.37;;;11.00;99.90;;;;;;4957185;28;20666;-69
2022/03/12 01:19:12;;;;;;;6.00;5.50;;;11.10;99.90;;;;;;4956980;28;20184;-68
2022/03/12 01:21:38;;;;;;;5.60;5.10;;;11.00;99.90;;;;;;4957188;28;20633;-69
2022/03/12 01:24:04;;;;;;;5.03;4.57;;;11.10;99.90;;;;;;4957092;28;20180;-69
2022/03/12 01:26:29;;;;;;;4.70;4.30;;;11.10;99.90;;;;;;4956519;28;20303;-69
2022/03/12 01:28:55;;;;;;;5.20;4.80;;;11.10;99.90;;;;;;4955455;28;20657;-68
2022/03/12 01:31:22;;;;;;;4.90;4.50;;;11.10;99.90;;;;;;4956880;28;20176;-69
2022/03/12 01:33:48;;;;;;;4.70;4.30;;;11.20;99.90;;;;;;4956651;28;20183;-69
2022/03/12 01:36:14;;;;;;;4.53;3.93;;;11.20;99.90;;;;;;4956859;28;20188;-69
2022/03/12 01:38:52;;;;;;;3.70;3.40;;;11.20;99.90;;;;;;4956849;28;20185;-69
2022/03/12 01:41:24;;;;;;;4.63;4.23;;;11.10;99.90;;;;;;4956536;28;20196;-69
2022/03/12 01:43:51;;;;;;;3.87;3.40;;;11.20;99.90;;;;;;4956638;28;20275;-70
2022/03/12 01:46:18;;;;;;;3.77;3.47;;;11.10;99.90;;;;;;4956429;28;20316;-69
2022/03/12 01:48:46;;;;;;;5.07;3.73;;;11.20;99.90;;;;;;4956342;28;20252;-68
2022/03/12 01:51:13;;;;;;;3.60;3.33;;;11.20;99.90;;;;;;4956525;28;20246;-68
2022/03/12 01:53:39;;;;;;;3.40;3.10;;;11.20;99.90;;;;;;4956377;28;20171;-68
2022/03/12 01:56:05;;;;;;;3.50;3.30;;;11.20;99.90;;;;;;4955165;28;20176;-69
2022/03/12 01:58:30;;;;;;;3.30;3.10;;;11.20;99.90;;;;;;4956373;28;20636;-69
2022/03/12 02:01:00;;;;;;;3.80;3.50;;;11.10;99.90;;;;;;4955032;28;20180;-68
2022/03/12 02:03:29;;;;;;;3.33;3.13;;;11.10;99.90;;;;;;4955957;28;20181;-68
2022/03/12 02:05:58;;;;;;;3.60;3.30;;;11.20;99.90;;;;;;4955899;28;20304;-68
2022/03/12 02:08:25;;;;;;;3.43;3.13;;;11.10;99.90;;;;;;4956356;28;20637;-68
2022/03/12 02:10:56;;;;;;;3.60;3.30;;;11.20;99.90;;;;;;4956143;28;20177;-69
2022/03/12 02:13:21;;;;;;;4.10;3.47;;;11.10;99.90;;;;;;4956061;28;20235;-68
2022/03/12 02:15:47;;;;;;;3.40;3.20;;;11.10;99.90;;;;;;4955999;28;20173;-68
2022/03/12 02:18:14;;;;;;;3.97;3.77;;;11.10;99.90;;;;;;4956151;28;20223;-68
2022/03/12 02:20:41;;;;;;;3.77;3.23;;;11.10;99.90;;;;;;4955650;28;20184;-68
2022/03/12 02:23:10;;;;;;;4.33;3.90;;;11.00;99.90;;;;;;4955394;28;20204;-68
2022/03/12 02:25:36;;;;;;;4.70;3.70;;;11.00;99.90;;;;;;4955667;28;20299;-67
2022/03/12 02:28:14;;;;;;;4.60;4.23;;;10.90;99.90;;;;;;4955571;28;20320;-69
2022/03/12 02:30:48;;;;;;;4.80;4.33;;;10.90;99.90;;;;;;4955448;28;20192;-68
2022/03/12 02:33:14;;;;;;;4.60;4.20;;;10.90;99.90;;;;;;4955711;28;20207;-68
2022/03/12 02:35:42;;;;;;;4.10;3.77;;;11.00;99.90;;;;;;4955745;28;20214;-68
2022/03/12 02:38:08;;;;;;;4.50;4.10;;;10.90;99.90;;;;;;4955913;28;20199;-68
2022/03/12 02:40:34;;;;;;;4.63;4.23;;;10.90;99.90;;;;;;4955633;28;20638;-68
2022/03/12 02:43:01;;;;;;;5.07;4.20;;;10.90;99.90;;;;;;4955657;28;20180;-68
2022/03/12 02:45:29;;;;;;;4.53;4.23;;;11.00;99.90;;;;;;4955254;28;20208;-68
2022/03/12 02:47:55;;;;;;;5.10;4.60;;;11.00;99.90;;;;;;4955618;28;20176;-68
2022/03/12 02:50:22;;;;;;;5.00;4.60;;;11.00;99.90;;;;;;4954215;29;20183;-68
2022/03/12 02:52:47;;;;;;;4.97;4.47;;;11.00;99.90;;;;;;4955592;28;20253;-68
2022/03/12 02:55:18;;;;;;;5.17;4.70;;;11.10;99.90;;;;;;4955354;28;20177;-68
2022/03/12 02:57:46;;;;;;;5.47;4.67;;;11.00;99.90;;;;;;4955528;28;20204;-68
2022/03/12 03:00:13;;;;;;;5.07;4.63;;;11.00;99.90;;;;;;4954909;28;20264;-68
2022/03/12 03:02:40;;;;;;;4.80;4.40;;;10.90;99.90;;;;;;4955557;28;20177;-68
2022/03/12 03:05:16;;;;;;;6.80;5.47;;;10.90;99.90;;;;;;4955215;28;20208;-68
2022/03/12 03:07:45;;;;;;;5.43;4.83;;;10.90;99.90;;;;;;4955364;28;20183;-68
2022/03/12 03:10:20;;;;;;;5.47;4.97;;;11.00;99.90;;;;;;4955145;28;20748;-68
2022/03/12 03:12:45;;;;;;;4.90;4.50;;;10.90;99.90;;;;;;4955433;28;20176;-69
2022/03/12 03:15:12;;;;;;;5.97;5.10;;;11.00;99.90;;;;;;4954913;28;20184;-68
2022/03/12 03:17:40;;;;;;;4.90;4.50;;;11.00;99.90;;;;;;4953971;28;20180;-69
2022/03/12 03:20:06;;;;;;;5.17;4.77;;;10.90;99.90;;;;;;4955189;28;20173;-68
2022/03/12 03:22:31;;;;;;;5.53;5.07;;;10.90;99.90;;;;;;4955081;28;20191;-68
2022/03/12 03:24:57;;;;;;;5.33;4.77;;;10.90;99.90;;;;;;4954876;28;20201;-69
2022/03/12 03:27:23;;;;;;;5.70;5.10;;;10.90;99.90;;;;;;4955245;28;20689;-69
2022/03/12 03:29:48;;;;;;;5.50;5.10;;;10.90;99.90;;;;;;4954458;28;20237;-68
2022/03/12 03:32:14;;;;;;;6.07;5.13;;;10.80;99.90;;;;;;4955247;28;20564;-68
2022/03/12 03:34:40;;;;;;;5.60;5.10;;;10.80;99.90;;;;;;4954970;28;20271;-68
2022/03/12 03:37:06;;;;;;;6.10;5.60;;;10.80;99.90;;;;;;4958324;28;20267;-68
2022/03/12 03:39:31;;;;;;;5.67;5.17;;;10.80;99.90;;;;;;4958919;28;20176;-68
2022/03/12 03:41:57;;;;;;;6.27;5.67;;;10.70;99.90;;;;;;4958693;28;20191;-68
2022/03/12 03:44:27;;;;;;;5.80;4.67;;;10.70;99.90;;;;;;4958505;28;20180;-68
2022/03/12 03:46:53;;;;;;;5.90;4.93;;;10.70;99.90;;;;;;4973601;28;20212;-69
2022/03/12 03:49:19;;;;;;;6.50;5.07;;;10.70;99.90;;;;;;4958889;28;20319;-68
2022/03/12 03:51:47;;;;;;;5.17;4.70;;;10.80;99.90;;;;;;4958825;28;20558;-69
2022/03/12 03:54:14;;;;;;;5.30;4.90;;;10.70;99.90;;;;;;4958626;28;20526;-69
2022/03/12 03:56:41;;;;;;;5.83;5.07;;;10.70;99.90;;;;;;4958622;28;20639;-69
2022/03/12 03:59:07;;;;;;;8.63;5.80;;;10.80;99.90;;;;;;4958378;28;20180;-69
2022/03/12 04:01:33;;;;;;;5.53;5.07;;;10.80;99.90;;;;;;4958334;28;20165;-69
2022/03/12 04:03:58;;;;;;;6.17;5.57;;;10.80;99.90;;;;;;4958843;28;20172;-69
2022/03/12 04:06:27;;;;;;;5.30;4.80;;;10.70;99.90;;;;;;4958360;28;20212;-69
2022/03/12 04:08:54;;;;;;;6.97;5.30;;;10.70;99.90;;;;;;4958295;28;20164;-69
2022/03/12 04:11:24;;;;;;;5.93;5.43;;;10.70;99.90;;;;;;4958463;28;20176;-69
2022/03/12 04:13:52;;;;;;;5.80;5.30;;;10.70;99.90;;;;;;4958094;28;20232;-69
2022/03/12 04:16:20;;;;;;;8.97;4.70;;;10.70;99.90;;;;;;4958397;28;20177;-69
2022/03/12 04:18:47;;;;;;;4.93;4.50;;;10.80;99.90;;;;;;4958409;28;20181;-69
2022/03/12 04:21:14;;;;;;;5.10;4.63;;;10.80;99.90;;;;;;4958234;28;20173;-70
2022/03/12 04:23:41;;;;;;;4.83;4.33;;;10.80;99.90;;;;;;4957660;28;20185;-69
2022/03/12 04:26:09;;;;;;;4.70;4.30;;;10.90;99.90;;;;;;4958058;28;20251;-69
2022/03/12 04:28:35;;;;;;;5.57;4.70;;;10.90;99.90;;;;;;4957617;28;20609;-69
2022/03/12 04:31:03;;;;;;;4.63;4.23;;;11.00;99.90;;;;;;4958033;28;20227;-68
2022/03/12 04:33:29;;;;;;;5.27;4.73;;;11.10;99.90;;;;;;4957715;28;20184;-69
2022/03/12 04:35:56;;;;;;;4.83;4.43;;;11.10;99.90;;;;;;4957857;28;20208;-68
2022/03/12 04:38:22;;;;;;;4.57;4.17;;;11.10;99.90;;;;;;4957936;28;20169;-70
2022/03/12 04:40:48;;;;;;;4.90;4.33;;;11.10;99.90;;;;;;4957533;28;20263;-69
2022/03/12 04:43:14;;;;;;;5.90;4.67;;;11.20;99.90;;;;;;4957857;28;20572;-70
2022/03/12 04:45:43;;;;;;;5.67;4.60;;;11.10;99.90;;;;;;4957729;28;20224;-69
2022/03/12 04:48:17;;;;;;;6.27;4.40;;;11.10;99.90;;;;;;4957286;28;20204;-70
2022/03/12 04:50:43;;;;;;;6.67;4.77;;;11.00;99.90;;;;;;4957618;28;20184;-69
2022/03/12 04:53:09;;;;;;;6.57;5.07;;;11.00;99.90;;;;;;4957484;28;20534;-69
2022/03/12 04:55:36;;;;;;;8.73;4.87;;;10.90;99.90;;;;;;4957151;28;20585;-69
2022/03/12 04:58:04;;;;;;;6.00;4.50;;;10.80;99.90;;;;;;4957541;28;20168;-69
2022/03/12 05:00:31;;;;;;;6.47;4.33;;;10.70;99.90;;;;;;4957523;28;20290;-69
2022/03/12 05:03:03;;;;;;;5.70;4.43;;;10.60;99.90;;;;;;4957254;28;20177;-70
2022/03/12 05:05:29;;;;;;;5.90;4.80;;;10.50;99.90;;;;;;4956872;28;20220;-69
2022/03/12 05:07:56;;;;;;;5.40;4.60;;;10.50;99.90;;;;;;4957553;28;20180;-69
2022/03/12 05:10:22;;;;;;;5.90;4.53;;;10.50;99.90;;;;;;4957081;28;20180;-69
2022/03/12 05:12:54;;;;;;;5.27;4.47;;;10.40;99.90;;;;;;4957338;28;20188;-69
2022/03/12 05:15:19;;;;;;;6.53;4.67;;;10.40;99.90;;;;;;4957028;28;20267;-68
2022/03/12 05:17:51;;;;;;;6.93;4.20;;;10.40;99.90;;;;;;4957174;28;20585;-69
2022/03/12 05:20:23;;;;;;;6.57;4.13;;;10.30;99.90;;;;;;4957059;28;20165;-69
2022/03/12 05:22:49;;;;;;;8.00;4.33;;;10.30;99.90;;;;;;4956515;28;20176;-69
2022/03/12 05:25:16;;;;;;;5.87;4.20;;;10.30;99.90;;;;;;4955900;28;20224;-69
2022/03/12 05:27:42;;;;;;;4.87;4.20;;;10.30;99.90;;;;;;4956857;28;20259;-70
2022/03/12 05:30:08;;;;;;;6.10;3.90;;;10.30;99.90;;;;;;4956607;28;20644;-69
2022/03/12 05:32:34;;;;;;;6.10;4.60;;;10.20;99.90;;;;;;4956956;28;20173;-69
2022/03/12 05:34:59;;;;;;;6.77;4.27;;;10.20;99.90;;;;;;4956613;28;20271;-69
2022/03/12 05:37:25;;;;;;;5.57;4.50;;;10.20;99.90;;;;;;4956971;28;20200;-70
2022/03/12 05:39:51;;;;;;;7.53;4.27;;;10.20;99.90;;;;;;4954961;29;20184;-69
2022/03/12 05:42:20;;;;;;;6.43;4.07;;;10.10;99.90;;;;;;4956427;28;20172;-70
2022/03/12 05:44:45;;;;;;;6.70;4.10;;;10.10;99.90;;;;;;4956307;28;20176;-69
2022/03/12 05:47:11;;;;;;;8.27;4.10;;;10.10;99.90;;;;;;4956583;28;20663;-69
2022/03/12 05:49:37;;;;;;;6.33;3.83;;;10.10;99.90;;;;;;4956244;28;20629;-70
2022/03/12 05:52:03;;;;;;;7.33;4.30;;;10.00;99.90;;;;;;4956357;28;20169;-69
2022/03/12 05:54:29;;;;;;;6.70;4.00;;;10.10;99.90;;;;;;4955793;28;20189;-69
2022/03/12 05:56:56;;;;;;;5.20;3.47;;;10.00;99.90;;;;;;4955999;28;20192;-69
2022/03/12 05:59:22;;;;;;;5.27;3.63;;;10.00;99.90;;;;;;4955271;28;20201;-69
2022/03/12 06:01:50;;;;;;;5.33;3.83;;;10.00;99.90;;;;;;4956294;28;20191;-70
2022/03/12 06:04:25;;;;;;;4.90;3.50;;;10.00;99.90;;;;;;4956044;28;20231;-69
2022/03/12 06:06:52;;;;;;;6.63;3.50;;;10.00;99.90;;;;;;4956243;28;20212;-69
2022/03/12 06:09:18;;;;;;;5.53;3.97;;;9.90;99.90;;;;;;4955675;28;20733;-69
2022/03/12 06:11:45;;;;;;;6.83;3.40;;;9.90;99.90;;;;;;4955530;28;20175;-69
2022/03/12 06:14:16;;;;;;;5.43;3.90;;;9.90;99.90;;;;;;4955899;28;20172;-68
2022/03/12 06:16:47;;;;;;;9.13;3.77;;;9.90;99.90;;;;;;4955908;28;20177;-69
2022/03/12 06:19:18;;;;;;;4.03;3.50;;;9.90;99.90;;;;;;4956013;28;20181;-69
2022/03/12 06:21:44;;;;;;;4.83;3.40;;;9.90;99.90;;;;;;4955567;28;20188;-70
2022/03/12 06:24:09;;;;;;;4.40;4.00;;;9.90;99.90;;;;;;4955455;28;20187;-69
2022/03/12 06:26:36;;;;;;;6.93;4.10;;;9.90;99.90;;;;;;4955458;28;20224;-69
2022/03/12 06:29:03;;;;;;;4.73;4.10;;;9.90;99.90;;;;;;4955461;28;20290;-69
2022/03/12 06:31:31;;;;;;;4.20;3.80;;;9.90;99.90;;;;;;4955619;28;20176;-69
2022/03/12 06:33:58;;;;;;;4.60;3.57;;;10.00;99.90;;;;;;4955578;28;20184;-69
2022/03/12 06:36:23;;;;;;;6.10;4.10;;;10.00;99.90;;;;;;4955637;28;20223;-70
2022/03/12 06:38:49;;;;;;;5.67;4.00;;;10.10;99.90;;;;;;4955339;28;20263;-69
2022/03/12 06:41:15;;;;;;;6.23;4.00;;;10.10;99.90;;;;;;4954918;28;20715;-69
2022/03/12 06:43:42;;;;;;;6.43;4.00;;;10.20;99.90;;;;;;4954150;28;20275;-69
2022/03/12 06:46:13;;;;;;;7.10;4.40;;;10.20;99.90;;;;;;4955310;29;20582;-69
2022/03/12 06:48:39;;;;;;;6.47;3.73;;;10.20;99.90;;;;;;4955312;28;20200;-69
2022/03/12 06:51:06;;;;;;;6.27;3.87;;;10.30;99.90;;;;;;4955299;28;20192;-69
2022/03/12 06:53:32;;;;;;;4.37;3.70;;;10.30;99.90;;;;;;4954827;28;20257;-69
2022/03/12 06:55:58;;;;;;;4.00;3.70;;;10.40;99.90;;;;;;4955198;28;20181;-69
2022/03/12 06:58:24;;;;;;;6.13;3.83;;;10.40;99.90;;;;;;4954763;28;20259;-69
2022/03/12 07:00:50;;;;;;;11.63;4.47;;;10.50;99.90;;;;;;4955129;28;20183;-69
2022/03/12 07:03:16;;;;;;;4.90;3.67;;;10.70;99.90;;;;;;4955214;28;20588;-69
2022/03/12 07:05:42;;;;;;;7.77;4.33;;;10.80;99.90;;;;;;4954574;28;20218;-69
2022/03/12 07:08:07;;;;;;;8.00;3.97;;;10.90;99.90;;;;;;4954744;28;20175;-69
2022/03/12 07:10:33;;;;;;;8.80;3.80;;;11.00;99.90;;;;;;4954670;28;20184;-68
2022/03/12 07:12:59;;;;;;;6.60;3.80;;;11.30;99.90;;;;;;4954916;28;20235;-69
2022/03/12 07:15:25;;;;;;;6.23;3.80;;;11.50;99.90;;;;;;4954691;28;20176;-69
2022/03/12 07:17:51;;;;;;;7.27;4.00;;;11.70;99.90;;;;;;4954702;28;20641;-69
2022/03/12 07:20:18;;;;;;;5.87;3.60;;;12.00;99.90;;;;;;4955063;28;20761;-69
2022/03/12 07:22:44;;;;;;;5.83;3.40;;;12.30;99.90;;;;;;4954813;28;20624;-68
2022/03/12 07:25:11;;;;;;;7.50;3.53;;;12.60;99.90;;;;;;4954955;28;20251;-69
2022/03/12 07:27:37;;;;;;;4.20;3.00;;;12.90;99.90;;;;;;4954216;28;20183;-70
2022/03/12 07:30:05;;;;;;;6.23;3.30;;;13.60;99.90;;;;;;4954616;28;20188;-69
2022/03/12 07:32:31;;;;;;;6.83;3.40;;;13.80;99.90;;;;;;4954683;28;20207;-69
2022/03/12 07:34:57;;;;;;;5.70;3.00;;;13.90;99.90;;;;;;4954039;28;20207;-69
2022/03/12 07:37:23;;;;;;;5.63;3.90;;;13.90;99.90;;;;;;4954679;28;20648;-69
2022/03/12 07:39:48;;;;;;;5.13;3.40;;;14.00;99.90;;;;;;4954740;28;20173;-68
2022/03/12 07:42:14;;;;;;;7.27;3.33;;;14.20;99.90;;;;;;4954001;28;20205;-69
2022/03/12 07:44:40;;;;;;;6.80;3.73;;;14.90;99.90;;;;;;4954219;28;20176;-68
2022/03/12 07:47:07;;;;;;;6.27;3.57;;;15.30;99.30;;;;;;4954688;28;20181;-71
2022/03/12 07:49:34;;;;;;;7.03;3.17;;;14.90;99.30;;;;;;4954104;28;20211;-69
2022/03/12 07:52:00;;;;;;;7.00;3.87;;;14.70;99.80;;;;;;4954132;28;20176;-70
2022/03/12 07:54:25;;;;;;;4.87;3.40;;;14.30;99.90;;;;;;4954462;28;20712;-70
2022/03/12 07:56:51;;;;;;;4.47;3.20;;;13.50;99.90;;;;;;4954073;28;20752;-69
2022/03/12 07:59:18;;;;;;;7.87;3.37;;;12.50;99.90;;;;;;4954225;28;20251;-70
2022/03/12 08:01:44;;;;;;;5.17;3.60;;;12.40;99.90;;;;;;4954492;28;20177;-70
2022/03/12 08:04:09;;;;;;;8.87;3.73;;;12.50;99.90;;;;;;4954030;28;20660;-69
2022/03/12 08:06:35;;;;;;;10.67;3.87;;;12.60;99.90;;;;;;4954154;28;20216;-69
2022/03/12 08:09:01;;;;;;;6.50;4.00;;;12.50;99.90;;;;;;4953906;28;20179;-69
2022/03/12 08:11:28;;;;;;;7.03;3.50;;;12.60;99.90;;;;;;4954222;28;20189;-69
2022/03/12 08:14:03;;;;;;;4.63;3.30;;;12.40;99.90;;;;;;4954165;28;20644;-69
2022/03/12 08:16:30;;;;;;;8.40;3.30;;;12.60;99.90;;;;;;4954380;28;20191;-68
2022/03/12 08:18:56;;;;;;;11.20;3.67;;;12.70;99.90;;;;;;4953721;28;20215;-69
2022/03/12 08:21:22;;;;;;;7.10;3.60;;;12.90;99.90;;;;;;4953998;28;20279;-68
2022/03/12 08:23:49;;;;;;;4.80;3.40;;;13.40;99.90;;;;;;4957836;28;20176;-68
2022/03/12 08:26:16;;;;;;;5.80;3.17;;;14.10;99.90;;;;;;4957738;28;20291;-69
2022/03/12 08:28:42;;;;;;;6.33;3.73;;;14.90;99.90;;;;;;4957307;28;20252;-69
2022/03/12 08:31:08;;;;;;;4.43;2.83;;;15.00;99.70;;;;;;4957699;28;20263;-69
2022/03/12 08:33:36;;;;;;;6.83;3.40;;;14.70;99.40;;;;;;4957352;28;20172;-69
2022/03/12 08:36:02;;;;;;;4.93;3.47;;;14.60;99.90;;;;;;4957332;28;20263;-70
2022/03/12 08:38:28;;;;;;;5.97;3.60;;;14.50;99.90;;;;;;4957974;28;20266;-69
2022/03/12 08:40:54;;;;;;;10.30;3.93;;;14.80;99.90;;;;;;4957260;28;20208;-70
2022/03/12 08:43:21;;;;;;;5.57;4.00;;;15.00;99.10;;;;;;4957297;28;20184;-69
2022/03/12 08:45:48;;;;;;;6.83;3.27;;;15.10;98.80;;;;;;4956829;28;20208;-68
2022/03/12 08:48:14;;;;;;;5.47;3.13;;;15.60;97.90;;;;;;4955816;29;20589;-68
2022/03/12 08:50:40;;;;;;;4.63;3.40;;;15.90;96.30;;;;;;4957039;28;20181;-70
2022/03/12 08:53:06;;;;;;;7.07;3.47;;;16.20;95.90;;;;;;4956770;28;20544;-70
2022/03/12 08:55:31;;;;;;;8.60;3.40;;;16.30;95.10;;;;;;4957033;28;20267;-69
2022/03/12 08:57:57;;;;;;;3.93;3.10;;;16.20;95.00;;;;;;4957213;28;20252;-68
2022/03/12 09:00:23;;;;;;;7.33;3.23;;;15.70;95.80;;;;;;4956459;28;20169;-70
2022/03/12 09:02:50;;;;;;;7.10;3.47;;;16.40;95.00;;;;;;4956958;28;20176;-70
2022/03/12 09:05:16;;;;;;;5.50;3.30;;;17.00;93.70;;;;;;4956893;28;20212;-70
2022/03/12 09:07:44;;;;;;;5.87;3.20;;;17.40;92.30;;;;;;4956355;28;20176;-70
2022/03/12 09:10:11;;;;;;;5.45;3.50;;;17.50;91.90;;;;;;4955325;28;20632;-70
2022/03/12 09:12:39;;;;;;;8.48;3.40;;;18.30;90.60;;;;;;4956939;28;20173;-70
2022/03/12 09:15:06;;;;;;;3.85;3.22;;;18.40;89.10;;;;;;4956827;28;20161;-70
2022/03/12 09:17:32;;;;;;;5.30;3.63;;;18.40;89.60;;;;;;4956303;28;20644;-70
2022/03/12 09:19:58;;;;;;;5.75;3.20;;;18.70;87.40;;;;;;4956779;28;20186;-70
2022/03/12 09:22:24;;;;;;;7.28;3.50;;;18.80;85.50;;;;;;4956589;28;20173;-71
2022/03/12 09:24:50;;;;;;;5.18;3.42;;;19.00;86.20;;;;;;4956612;28;20195;-70
2022/03/12 09:27:16;;;;;;;3.65;3.00;;;19.10;83.90;;;;;;4957023;28;20184;-70
2022/03/12 09:29:42;;;;;;;4.97;3.28;;;19.70;81.20;;;;;;4956022;28;20216;-70
2022/03/12 09:32:08;;;;;;;5.43;3.05;;;20.50;78.60;;;;;;4956029;28;20180;-72
2022/03/12 09:34:35;;;;;;;4.30;3.22;;;21.30;75.70;;;;;;4955370;28;20198;-72
2022/03/12 09:37:02;;;;;;;9.32;3.75;;;21.20;74.30;;;;;;4956811;28;20282;-71
2022/03/12 09:39:28;;;;;;;6.82;2.88;;;21.10;73.80;;;;;;4956343;28;20180;-71
2022/03/12 09:41:54;;;;;;;3.08;2.67;;;20.60;73.70;;;;;;4956003;28;20644;-71
2022/03/12 09:44:19;;;;;;;3.05;2.70;;;20.60;74.40;;;;;;4955855;28;20272;-71
2022/03/12 09:46:46;;;;;;;3.63;2.78;;;20.70;73.10;;;;;;4955633;28;20220;-71
2022/03/12 09:49:12;;;;;;;4.00;2.63;;;20.90;72.10;;;;;;4956449;28;20176;-70
2022/03/12 09:51:38;;;;;;;4.20;2.95;;;20.80;72.00;;;;;;4956227;28;20176;-72
2022/03/12 09:54:04;;;;;;;3.85;2.60;;;20.90;71.90;;;;;;4954674;28;20268;-72
2022/03/12 09:56:30;;;;;;;4.00;2.53;;;21.20;70.60;;;;;;4956102;28;20272;-71
2022/03/12 09:58:56;;;;;;;4.05;2.30;;;21.10;69.10;;;;;;4955549;28;20183;-71
2022/03/12 10:01:22;;;;;;;3.35;2.60;;;21.30;69.20;;;;;;4955560;28;20539;-71
2022/03/12 10:03:47;;;;;;;3.28;2.40;;;21.60;68.60;;;;;;4955990;28;20184;-70
2022/03/12 10:06:15;;;;;;;3.47;2.53;;;21.70;67.90;;;;;;4955603;28;20217;-70
2022/03/12 10:08:41;;;;;;;4.47;2.15;;;21.40;68.00;;;;;;4956036;28;20176;-71
2022/03/12 10:11:07;;;;;;;5.03;2.33;;;21.70;66.50;;;;;;4955582;28;20268;-71
2022/03/12 10:13:33;;;;;;;3.78;2.50;;;21.20;67.20;;;;;;4955908;28;20641;-72
2022/03/12 10:15:59;;;;;;;4.18;2.83;;;21.00;68.30;;;;;;4955198;28;20304;-71
2022/03/12 10:18:26;;;;;;;4.28;2.70;;;21.70;67.50;;;;;;4955601;28;20644;-72
2022/03/12 10:20:52;;;;;;;3.08;2.25;;;21.70;65.00;;;;;;4955423;28;20259;-72
2022/03/12 10:23:17;;;;;;;3.13;2.10;;;21.10;64.90;;;;;;4955868;28;20277;-71
2022/03/12 10:25:43;;;;;;;3.95;2.50;;;19.90;67.10;;;;;;4955562;28;20660;-71
2022/03/12 10:28:10;;;;;;;4.38;2.08;;;19.50;69.80;;;;;;4955209;28;20691;-71
2022/03/12 10:30:35;;;;;;;4.13;2.45;;;19.70;69.90;;;;;;4954802;28;20184;-71
2022/03/12 10:33:01;;;;;;;4.45;2.72;;;20.10;69.10;;;;;;4955562;28;20532;-70
2022/03/12 10:35:34;;;;;;;5.82;2.75;;;19.90;69.30;;;;;;4955063;28;20173;-71
2022/03/12 10:38:00;;;;;;;5.57;2.80;;;19.80;69.60;;;;;;4955545;28;20204;-71
2022/03/12 10:40:27;;;;;;;5.93;2.88;;;19.80;70.20;;;;;;4954756;28;20192;-71
2022/03/12 10:42:54;;;;;;;4.45;2.90;;;19.90;69.70;;;;;;4955175;28;20182;-71
2022/03/12 10:45:25;;;;;;;4.95;2.78;;;20.00;68.60;;;;;;4954159;28;20686;-71
2022/03/12 10:47:56;;;;;;;4.18;3.10;;;20.50;69.60;;;;;;4955092;28;20224;-72
2022/03/12 10:50:29;;;;;;;3.53;2.40;;;21.00;67.80;;;;;;4954785;28;20184;-70
2022/03/12 10:52:57;;;;;;;5.57;2.60;;;19.50;68.70;;;;;;4954662;28;20264;-70
2022/03/12 10:55:28;;;;;;;3.55;2.70;;;18.60;72.60;;;;;;4954800;28;20172;-71
2022/03/12 10:57:56;;;;;;;3.72;2.40;;;19.10;73.00;;;;;;4954761;28;20192;-70
2022/03/12 11:00:24;;;;;;;4.78;2.65;;;19.60;70.50;;;;;;4954343;28;20205;-71
2022/03/12 11:02:58;;;;;;;3.30;2.72;;;19.90;70.10;;;;;;4954453;28;20169;-71
2022/03/12 11:05:28;;;;;;;2.55;2.35;;;20.00;69.60;;;;;;4954304;28;20280;-71
2022/03/12 11:08:06;;;;;;;3.28;2.22;;;19.70;68.70;;;;;;4954952;28;20212;-71
2022/03/12 11:10:33;;;;;;;2.55;2.20;;;20.80;67.50;;;;;;4954137;28;20243;-71
2022/03/12 11:12:59;;;;;;;4.55;2.55;;;20.60;67.20;;;;;;4953867;28;20256;-71
2022/03/12 11:15:25;;;;;;;6.22;2.50;;;20.80;66.60;;;;;;4954552;28;20279;-71
2022/03/12 11:17:51;;;;;;;4.20;2.28;;;21.10;65.70;;;;;;4954796;28;20569;-71
2022/03/12 11:20:23;;;;;;;5.00;2.97;;;21.70;65.00;;;;;;4955006;28;20208;-71
2022/03/12 11:23:05;;;;;;;5.93;2.53;;;22.40;62.20;;;;;;4953996;28;20220;-72
2022/03/12 11:25:30;;;;;;;5.25;2.53;;;22.60;60.70;;;;;;4953344;28;20205;-71
2022/03/12 11:28:00;;;;;;;4.60;2.20;;;22.30;61.20;;;;;;4954084;28;20219;-71
2022/03/12 11:30:30;;;;;;;3.78;2.00;;;21.30;60.90;;;;;;4954394;28;20270;-71
2022/03/12 11:33:06;;;;;;;1.80;1.63;;;20.60;62.50;;;;;;4953020;28;20196;-71
2022/03/12 11:35:40;;;;;;;5.80;2.00;;;19.70;64.30;;;;;;4954841;28;20176;-70
2022/03/12 11:38:18;;;;;;;4.05;2.03;;;19.50;66.40;;;;;;4954886;28;20176;-70
2022/03/12 11:40:51;;;;;;;5.38;2.13;;;19.90;66.70;;;;;;4953806;28;20664;-71
2022/03/12 11:43:22;;;;;;;3.35;1.80;;;20.20;64.30;;;;;;4953929;28;20184;-72
2022/03/12 11:45:48;;;;;;;3.72;2.13;;;20.00;64.10;;;;;;4954442;28;20251;-71
2022/03/12 11:48:14;;;;;;;3.47;1.85;;;19.90;64.80;;;;;;4953013;28;20172;-72
2022/03/12 11:50:40;;;;;;;7.25;2.20;;;20.00;63.80;;;;;;4954052;28;20172;-71
2022/03/12 11:53:06;;;;;;;5.70;2.10;;;19.70;64.80;;;;;;4954497;28;20181;-72
2022/03/12 11:55:32;;;;;;;3.80;1.88;;;19.70;64.60;;;;;;4954239;28;20181;-70
2022/03/12 11:58:01;;;;;;;4.90;2.25;;;19.70;63.60;;;;;;4956284;28;20165;-71
2022/03/12 12:00:29;;;;;;;6.03;1.85;;;19.10;65.00;;;;;;4958046;28;20316;-70
2022/03/12 12:02:56;;;;;;;4.55;2.40;;;18.40;67.40;;;;;;4957890;28;20212;-71
2022/03/12 12:05:23;;;;;;;8.88;2.35;;;18.40;68.10;;;;;;4957671;28;20240;-71
2022/03/12 12:07:51;;;;;;;5.25;2.50;;;18.90;68.20;;;;;;4957349;28;20220;-69
2022/03/12 12:10:24;;;;;;;6.07;2.65;;;19.20;67.90;;;;;;4957500;28;20259;-71
2022/03/12 12:12:51;;;;;;;6.07;2.42;;;18.50;68.60;;;;;;4957578;28;20173;-70
2022/03/12 12:15:23;;;;;;;5.90;2.38;;;18.20;70.00;;;;;;4956764;28;20212;-70
2022/03/12 12:17:50;;;;;;;5.68;2.58;;;18.00;70.80;;;;;;4957867;28;20169;-71
2022/03/12 12:20:19;;;;;;;8.98;2.75;;;18.00;71.70;;;;;;4957391;28;20176;-71
2022/03/12 12:22:45;;;;;;;3.17;2.30;;;18.20;71.90;;;;;;4957665;28;20204;-70
2022/03/12 12:25:12;;;;;;;9.50;2.72;;;18.20;70.40;;;;;;4957165;28;20235;-71
2022/03/12 12:27:52;;;;;;;7.32;2.47;;;18.10;71.10;;;;;;4956725;28;20287;-69
2022/03/12 12:30:38;;;;;;;4.03;2.20;;;18.50;71.20;;;;;;4957973;28;20181;-70
2022/03/12 12:33:16;;;;;;;7.85;2.53;;;18.10;71.10;;;;;;4956924;28;20644;-69
2022/03/12 12:35:43;;;;;;;26.15;16.73;;;17.80;72.30;;;;;;4956700;28;20231;-70
2022/03/12 12:38:10;;;;;;;4.25;2.10;;;18.00;73.10;;;;;;4957285;28;20180;-70
2022/03/12 12:40:49;;;;;;;4.85;2.17;;;18.00;72.00;;;;;;4956929;28;20176;-69
2022/03/12 12:43:18;;;;;;;7.57;3.10;;;17.80;72.60;;;;;;4955687;28;20595;-70
2022/03/12 12:45:53;;;;;;;6.68;2.38;;;18.00;73.80;;;;;;4957108;28;20220;-69
2022/03/12 12:48:34;;;;;;;4.07;1.80;;;18.00;71.40;;;;;;4956792;28;20172;-70